MSC Flavia — 3FBD7 — position and weather

sailwx.info

Track history (hours):
 
Tides and Currents Weather Stations Pressure Air Temp Water Temp Dewpoint Dewpoint Depression Visibility Wind Speed Wind Dir Waves Ship Positions

MSC Flavia

Last reported at 2017-Mar-10 09:33 UTC. Time now 2017-Mar-27 00:36 UTC.
Position N 24°16' E 118°14'.
Warning: this ship's position is 16 days out of date.

Length 366 m; draft 11.2 m.

Type: Ship (hazmat cat A). MMSI: 373004000.

Date/timePositionNaut miles runAvg speedWind from/ knotsBaromVisibWave heightAir tempDewpointWater temp
2017-Mar-10 09:33N 24°16' E 118°14'1414.4
2017-Mar-10 08:33N 24°26' E 118°03'3 2.5
2017-Mar-10 07:32N 24°27' E 118°00'0 0.0
2017-Mar-10 06:32N 24°27' E 118°00'0 0.0
2017-Mar-10 04:32N 24°27' E 118°00'0 0.0
2017-Mar-10 03:32N 24°27' E 118°00'0 0.0
2017-Mar-10 02:29N 24°27' E 118°00'0 0.0
2017-Mar-10 01:26N 24°27' E 118°00'0 0.0
2017-Mar-10 00:20N 24°27' E 118°00'0 0.0
2017-Mar-09 23:33N 24°27' E 118°00'0 0.0
2017-Mar-09 22:33N 24°27' E 118°00'0 0.0
2017-Mar-09 21:33N 24°27' E 118°00'0 0.0
2017-Mar-09 20:33N 24°27' E 118°00'1 0.7
2017-Mar-09 19:33N 24°26' E 118°01'9 8.8
2017-Mar-09 18:33N 24°21' E 118°09'8 8.2
2017-Mar-09 17:33N 24°17' E 118°16'6 6.4
2017-Mar-09 16:33N 24°16' E 118°23'  
Track history (hours):
 
Tides and Currents Weather Stations Pressure Air Temp Water Temp Dewpoint Dewpoint Depression Visibility Wind Speed Wind Dir Waves Ship Positions

MSC Flavia

Last reported at 2017-Mar-10 09:33 UTC. Time now 2017-Mar-27 00:36 UTC.
Position N 24°16' E 118°14'.
Warning: this ship's position is 16 days out of date.

Length 366 m; draft 11.2 m.

Type: Ship (hazmat cat A). MMSI: 373004000.

Date/timePositionNaut miles runAvg speedWind from/ knotsBaromVisibWave heightAir tempDewpointWater temp
2017-Mar-10 09:33N 24°16' E 118°14'1414.4
2017-Mar-10 08:33N 24°26' E 118°03'3 2.5
2017-Mar-10 07:32N 24°27' E 118°00'0 0.0
2017-Mar-10 06:32N 24°27' E 118°00'0 0.0
2017-Mar-10 04:32N 24°27' E 118°00'0 0.0
2017-Mar-10 03:32N 24°27' E 118°00'0 0.0
2017-Mar-10 02:29N 24°27' E 118°00'0 0.0
2017-Mar-10 01:26N 24°27' E 118°00'0 0.0
2017-Mar-10 00:20N 24°27' E 118°00'0 0.0
2017-Mar-09 23:33N 24°27' E 118°00'0 0.0
2017-Mar-09 22:33N 24°27' E 118°00'0 0.0
2017-Mar-09 21:33N 24°27' E 118°00'0 0.0
2017-Mar-09 20:33N 24°27' E 118°00'1 0.7
2017-Mar-09 19:33N 24°26' E 118°01'9 8.8
2017-Mar-09 18:33N 24°21' E 118°09'8 8.2
2017-Mar-09 17:33N 24°17' E 118°16'6 6.4
2017-Mar-09 16:33N 24°16' E 118°23'  

Dump ship's entire track history